Main page
METAR-TAF:

METAR-TAF

Airports :

Pula, Croatia

Pula Airport

latitude: 44-54N, longitude: 013-55E, elevation: 63 m

Current weather observation

The report was made 29 minutes ago, at 04:30 UTC
Wind 3 kt from the East, varying between North/Northeast and East
Temperature 11°C
Humidity 66%
Pressure 1016 hPa
Visibility 10 km or more
no clouds below 1500 m and no cumulonimbus

METAR: LDPL 240430Z 08003KT 020V090 CAVOK 11/05 Q1016 NOSIG

Time: 06:59 (04:59 UTC)

Forecast

The report was made 5 hours and 34 minutes ago, at 23:25 UTC
Forecast valid from 24 at 00 UTC to 25 at 00 UTC
Wind 2 kt from variable directions
Visibility 10 km or more
no clouds below 1500 m and no cumulonimbus
Temporary
from 24 at 00 UTC to 24 at 09 UTC
Wind 7 kt from the East

TAF: LDPL 232325Z 2400/2500 VRB02KT CAVOK TX23/2412Z TN09/2402Z TEMPO 2400/2409 09007KT

Weather observations and forecasts of more than 4000 airports (METAR and TAF reports).

The available stations are represented by yellow and red dots on the map.

Hover mouse over dot to see the name of the station.

Then click to see weather observations and forecasts.

To change the map : click on the green buttons with a black cross to zoom in, on the green button with a dash to zoom out, or on the green arrows for adjacent maps.


METAR-TAF: